Time;durP1;ratioP1;P1;durP2;ratioP2;P2;SDS_P1;SDS_P2;PMS_P1;PMS_P2;Temp;Humidity;BMP_temperature;BMP_pressure;BME280_temperature;BME280_humidity;BME280_pressure;Samples;Min_cycle;Max_cycle;Signal;HPM_P1;HPM_P2
2023/05/25 00:01:35;;;;;;;12.52;8.02;;;;;;;21.45;47.36;102738.75;5003814;28;20097;-34
2023/05/25 00:04:02;;;;;;;12.57;8.27;;;;;;;21.44;47.33;102745.13;5005599;28;20057;-34
2023/05/25 00:06:31;;;;;;;13.20;7.43;;;;;;;21.44;47.00;102732.50;5000725;28;20054;-34
2023/05/25 00:08:58;;;;;;;11.32;7.75;;;;;;;21.44;47.57;102737.03;5004797;28;20175;-31
2023/05/25 00:11:25;;;;;;;13.93;8.30;;;;;;;21.44;47.24;102747.81;5002692;28;20504;-34
2023/05/25 00:13:52;;;;;;;12.90;7.75;;;;;;;21.43;47.17;102741.56;4999980;28;20403;-34
2023/05/25 00:16:19;;;;;;;12.20;7.60;;;;;;;21.43;47.49;102749.69;5004264;28;20054;-33
2023/05/25 00:18:47;;;;;;;12.88;7.97;;;;;;;21.42;47.34;102756.03;5003313;28;20053;-31
2023/05/25 00:21:14;;;;;;;12.02;7.18;;;;;;;21.42;47.56;102750.63;5004937;28;20042;-34
2023/05/25 00:23:42;;;;;;;11.35;6.88;;;;;;;21.41;47.41;102753.47;5004632;28;20061;-34
2023/05/25 00:26:08;;;;;;;12.27;7.90;;;;;;;21.41;47.39;102753.47;5001107;28;20050;-31
2023/05/25 00:28:35;;;;;;;11.68;7.68;;;;;;;21.40;47.11;102758.03;5003856;28;20050;-31
2023/05/25 00:31:02;;;;;;;11.15;7.05;;;;;;;21.39;47.08;102759.00;5000044;28;20041;-34
2023/05/25 00:33:28;;;;;;;11.93;7.65;;;;;;;21.40;47.22;102749.06;5005166;28;20052;-34
2023/05/25 00:35:56;;;;;;;10.90;6.72;;;;;;;21.39;47.30;102755.47;5005285;28;20050;-33
2023/05/25 00:38:22;;;;;;;11.35;7.07;;;;;;;21.39;47.19;102752.75;5002035;28;20053;-31
2023/05/25 00:40:55;;;;;;;10.55;7.35;;;;;;;21.36;47.21;102748.47;5004370;28;20129;-32
2023/05/25 00:43:22;;;;;;;11.20;6.72;;;;;;;21.35;47.35;102756.72;4998229;28;20046;-31
2023/05/25 00:45:50;;;;;;;11.57;7.15;;;;;;;21.34;47.38;102757.66;5001769;28;20354;-32
2023/05/25 00:48:17;;;;;;;10.25;7.10;;;;;;;21.32;47.52;102765.91;5005319;28;20050;-31
2023/05/25 00:50:44;;;;;;;10.15;6.53;;;;;;;21.31;47.82;102766.84;5003061;28;20378;-31
2023/05/25 00:53:12;;;;;;;11.07;6.50;;;;;;;21.30;47.70;102764.28;5001605;28;20061;-31
2023/05/25 00:56:13;;;;;;;10.70;6.90;;;;;;;21.28;47.78;102768.97;5003133;28;20056;-31
2023/05/25 00:58:41;;;;;;;10.57;6.80;;;;;;;21.28;47.84;102764.41;5002332;28;20096;-33
2023/05/25 01:01:11;;;;;;;9.73;6.43;;;;;;;21.27;47.22;102768.09;5005469;28;20082;-33
2023/05/25 01:03:44;;;;;;;10.65;7.13;;;;;;;21.26;47.66;102762.81;5005000;28;20045;-31
2023/05/25 01:06:14;;;;;;;11.27;6.90;;;;;;;21.24;47.65;102760.25;5002635;28;20049;-33
2023/05/25 01:08:46;;;;;;;9.05;6.05;;;;;;;21.23;47.37;102773.84;4997636;28;20610;-34
2023/05/25 01:11:15;;;;;;;11.18;6.13;;;;;;;21.23;47.39;102779.25;5000544;28;20133;-34
2023/05/25 01:13:42;;;;;;;10.43;6.25;;;;;;;21.20;47.80;102770.44;5000429;28;20532;-33
2023/05/25 01:16:10;;;;;;;10.05;6.13;;;;;;;21.19;47.84;102771.44;5001818;28;20236;-33
2023/05/25 01:18:40;;;;;;;9.30;5.97;;;;;;;21.17;47.51;102768.00;5000852;28;20104;-34
2023/05/25 01:21:13;;;;;;;9.50;6.25;;;;;;;21.17;47.94;102770.69;4998267;28;20100;-34
2023/05/25 01:24:16;;;;;;;8.10;5.60;;;;;;;21.13;47.71;102769.22;4999403;28;20723;-33
2023/05/25 01:26:52;;;;;;;9.20;5.88;;;;;;;21.14;47.82;102773.63;5001935;28;20046;-35
2023/05/25 01:29:21;;;;;;;9.23;6.00;;;;;;;21.13;47.92;102776.47;5032456;28;20081;-34
2023/05/25 01:31:49;;;;;;;10.57;6.22;;;;;;;21.13;47.85;102773.78;4998675;28;20089;-33
2023/05/25 01:34:16;;;;;;;9.88;5.72;;;;;;;21.11;48.04;102776.59;4998585;28;20053;-35
2023/05/25 01:36:42;;;;;;;10.90;6.45;;;;;;;21.11;47.91;102783.84;5001973;28;20046;-34
2023/05/25 01:39:10;;;;;;;8.80;5.40;;;;;;;21.10;47.41;102780.25;5000485;28;20084;-34
2023/05/25 01:41:36;;;;;;;8.77;5.40;;;;;;;21.09;47.51;102780.41;4998485;28;20402;-34
2023/05/25 01:44:06;;;;;;;9.77;5.75;;;;;;;21.10;47.96;102782.97;4996849;28;20100;-34
2023/05/25 01:46:38;;;;;;;9.27;5.90;;;;;;;21.09;47.49;102783.09;4998813;28;20430;-34
2023/05/25 01:49:18;;;;;;;9.50;5.40;;;;;;;21.08;47.52;102782.25;4998959;28;20056;-34
2023/05/25 01:52:06;;;;;;;7.93;5.28;;;;;;;21.05;48.09;102790.59;5005033;28;20164;-34
2023/05/25 01:54:39;;;;;;;8.02;5.30;;;;;;;21.06;47.80;102789.59;4993674;28;20049;-34
2023/05/25 01:57:11;;;;;;;9.10;5.43;;;;;;;21.05;47.73;102793.28;4997939;28;20081;-34
2023/05/25 01:59:42;;;;;;;8.68;5.20;;;;;;;21.03;48.09;102784.47;4999239;28;20160;-33
2023/05/25 02:02:11;;;;;;;8.80;5.57;;;;;;;21.02;47.57;102790.81;5003718;28;20046;-33
2023/05/25 02:04:37;;;;;;;8.80;5.75;;;;;;;21.01;47.71;102789.13;5002738;28;20128;-34
2023/05/25 02:07:05;;;;;;;6.97;4.80;;;;;;;21.02;47.79;102793.53;5000991;28;20100;-34
2023/05/25 02:09:31;;;;;;;7.22;4.88;;;;;;;21.01;47.56;102788.28;4998071;28;20133;-33
2023/05/25 02:11:58;;;;;;;8.27;4.80;;;;;;;21.00;47.51;102789.25;4997846;28;20169;-34
2023/05/25 02:14:24;;;;;;;8.55;4.80;;;;;;;20.98;48.11;102786.66;5001319;28;20086;-33
2023/05/25 02:16:51;;;;;;;7.03;4.47;;;;;;;20.99;47.84;102795.63;5008474;28;20085;-34
2023/05/25 02:19:18;;;;;;;8.60;4.97;;;;;;;20.97;47.64;102790.34;5005143;28;20200;-33
2023/05/25 02:21:45;;;;;;;10.55;5.65;;;;;;;20.96;47.93;102788.66;5002279;28;20050;-34
2023/05/25 02:24:11;;;;;;;8.63;4.97;;;;;;;20.96;48.07;102794.03;4997531;28;20046;-33
2023/05/25 02:26:38;;;;;;;7.32;4.70;;;;;;;20.96;48.14;102799.44;5002440;28;20053;-34
2023/05/25 02:29:05;;;;;;;9.02;5.18;;;;;;;20.94;47.64;102799.56;5001769;28;20057;-34
2023/05/25 02:31:32;;;;;;;7.70;4.95;;;;;;;20.95;47.86;102803.13;4998251;28;20050;-32
2023/05/25 02:33:59;;;;;;;7.22;4.30;;;;;;;20.94;47.89;102796.00;4998889;28;20528;-32
2023/05/25 02:36:26;;;;;;;7.82;4.93;;;;;;;20.93;48.09;102810.47;4999862;28;20145;-32
2023/05/25 02:38:52;;;;;;;5.80;3.90;;;;;;;20.92;47.81;102801.53;4998905;28;20132;-32
2023/05/25 02:41:20;;;;;;;8.82;4.97;;;;;;;20.92;47.70;102803.38;5002957;28;20072;-34
2023/05/25 02:43:46;;;;;;;7.53;4.35;;;;;;;20.91;47.49;102807.91;5001331;28;20086;-32
2023/05/25 02:46:13;;;;;;;5.95;4.07;;;;;;;20.91;47.60;102801.66;5031221;28;20104;-31
2023/05/25 02:48:40;;;;;;;7.15;4.55;;;;;;;20.90;47.82;102805.31;4999490;28;20050;-31
2023/05/25 02:51:07;;;;;;;8.43;4.50;;;;;;;20.88;47.70;102804.59;5001585;28;20053;-32
2023/05/25 02:53:34;;;;;;;6.47;4.65;;;;;;;20.88;47.85;102810.84;5001405;28;20049;-32
2023/05/25 02:56:02;;;;;;;6.88;4.30;;;;;;;20.87;47.83;102805.59;5001074;28;20053;-32
2023/05/25 02:58:29;;;;;;;6.13;4.22;;;;;;;20.86;48.00;102802.00;5005908;28;20046;-33
2023/05/25 03:00:58;;;;;;;5.90;4.20;;;;;;;20.85;47.87;102808.38;5003772;28;20053;-32
2023/05/25 03:03:26;;;;;;;7.35;4.10;;;;;;;20.85;48.04;102810.22;5002932;28;20050;-32
2023/05/25 03:05:53;;;;;;;6.20;4.30;;;;;;;20.84;47.90;102805.81;5000927;28;20053;-32
2023/05/25 03:08:20;;;;;;;6.10;4.22;;;;;;;20.84;47.95;102811.22;5005751;28;20364;-32
2023/05/25 03:10:47;;;;;;;6.75;4.05;;;;;;;20.82;48.30;102814.00;5002324;28;20409;-32
2023/05/25 03:13:14;;;;;;;6.15;4.03;;;;;;;20.82;47.83;102814.00;5000615;28;20240;-33
2023/05/25 03:15:40;;;;;;;5.80;4.10;;;;;;;20.82;47.93;102808.63;5003839;28;20058;-32
2023/05/25 03:18:07;;;;;;;6.40;4.18;;;;;;;20.81;47.82;102812.31;5004983;28;20097;-32
2023/05/25 03:20:34;;;;;;;6.18;3.70;;;;;;;20.81;47.62;102815.00;5003335;28;20045;-32
2023/05/25 03:23:01;;;;;;;6.95;4.32;;;;;;;20.80;48.16;102816.00;5004695;28;20124;-32
2023/05/25 03:25:28;;;;;;;4.40;3.35;;;;;;;20.80;47.85;102810.59;5000947;28;20324;-33
2023/05/25 03:27:54;;;;;;;5.53;3.92;;;;;;;20.80;47.97;102817.84;4998928;28;20141;-31
2023/05/25 03:30:22;;;;;;;6.43;3.90;;;;;;;20.78;47.53;102820.63;5001682;28;20054;-32
2023/05/25 03:32:48;;;;;;;6.85;3.70;;;;;;;20.78;48.02;102817.09;5008123;28;20046;-33
2023/05/25 03:35:15;;;;;;;6.53;3.70;;;;;;;20.78;48.01;102814.38;5001506;28;20054;-34
2023/05/25 03:37:42;;;;;;;5.90;3.22;;;;;;;20.76;47.65;102819.91;5005277;28;20057;-32
2023/05/25 03:40:10;;;;;;;5.18;3.38;;;;;;;20.76;48.03;102816.38;5005642;28;20046;-35
2023/05/25 03:42:37;;;;;;;5.32;3.53;;;;;;;20.76;47.98;102821.75;5001301;28;20074;-32
2023/05/25 03:45:05;;;;;;;5.35;3.28;;;;;;;20.75;47.86;102811.97;5008005;28;20077;-32
2023/05/25 03:47:31;;;;;;;5.63;3.45;;;;;;;20.74;47.69;102811.09;5004577;28;20060;-32
2023/05/25 03:49:58;;;;;;;5.10;3.40;;;;;;;20.74;48.02;102811.09;5009738;28;20054;-32
2023/05/25 03:52:25;;;;;;;5.82;3.95;;;;;;;20.73;48.24;102812.06;5001146;28;20457;-33
2023/05/25 03:54:51;;;;;;;4.25;3.10;;;;;;;20.74;48.18;102815.63;5000570;28;20082;-33
2023/05/25 03:57:18;;;;;;;5.47;3.72;;;;;;;20.73;48.24;102816.59;5002413;28;20433;-33
2023/05/25 03:59:45;;;;;;;6.68;3.97;;;;;;;20.73;48.00;102822.00;5027677;28;20077;-33
2023/05/25 04:02:12;;;;;;;5.90;3.63;;;;;;;20.72;47.63;102831.06;5002608;28;20123;-32
2023/05/25 04:04:40;;;;;;;5.82;3.13;;;;;;;20.72;47.66;102836.47;5003004;28;20046;-32
2023/05/25 04:07:07;;;;;;;5.90;3.67;;;;;;;20.71;48.16;102832.91;5005417;28;20042;-34
2023/05/25 04:09:33;;;;;;;5.90;3.13;;;;;;;20.71;47.80;102838.31;5006257;28;20088;-32
2023/05/25 04:12:01;;;;;;;6.60;3.47;;;;;;;20.69;47.63;102835.72;5006357;28;20066;-32
2023/05/25 04:14:27;;;;;;;7.22;3.45;;;;;;;20.70;47.68;102836.56;4997675;28;20081;-32
2023/05/25 04:16:54;;;;;;;6.35;3.55;;;;;;;20.70;47.86;102837.44;5001214;28;20046;-33
2023/05/25 04:19:21;;;;;;;5.72;3.10;;;;;;;20.69;47.92;102833.00;5002017;28;20073;-32
2023/05/25 04:21:47;;;;;;;7.68;3.95;;;;;;;20.70;47.38;102836.56;5033592;28;20077;-33
2023/05/25 04:24:14;;;;;;;4.85;3.35;;;;;;;20.70;47.62;102844.66;5004853;28;20081;-33
2023/05/25 04:26:40;;;;;;;5.35;3.08;;;;;;;20.69;47.82;102849.19;5003489;28;20104;-32
2023/05/25 04:29:08;;;;;;;5.65;3.20;;;;;;;20.69;47.95;102849.19;4999761;28;20046;-32
2023/05/25 04:31:35;;;;;;;4.85;2.97;;;;;;;20.69;48.00;102859.97;5005421;28;20104;-32
2023/05/25 04:34:02;;;;;;;5.88;2.92;;;;;;;20.70;48.09;102858.13;5005586;28;20050;-32
2023/05/25 04:36:31;;;;;;;4.47;2.95;;;;;;;20.70;47.79;102858.13;5004007;28;20331;-32
2023/05/25 04:39:01;;;;;;;5.20;3.30;;;;;;;20.69;48.02;102859.97;5002912;28;20153;-32
2023/05/25 04:41:32;;;;;;;4.88;2.63;;;;;;;20.70;48.04;102859.00;5001269;28;20050;-33
2023/05/25 04:44:00;;;;;;;4.38;3.08;;;;;;;20.72;47.87;102860.72;5031607;28;20068;-32
2023/05/25 04:46:39;;;;;;;7.22;3.53;;;;;;;20.74;47.75;102856.03;5005140;28;20049;-32
2023/05/25 04:49:09;;;;;;;5.93;3.20;;;;;;;20.76;47.74;102851.41;5005352;28;20046;-32
2023/05/25 04:51:36;;;;;;;4.78;3.10;;;;;;;20.76;47.91;102859.50;5004591;28;20054;-32
2023/05/25 04:54:02;;;;;;;5.13;3.00;;;;;;;20.79;47.44;102861.94;5032323;28;20054;-32
2023/05/25 04:56:29;;;;;;;5.10;2.88;;;;;;;20.80;48.02;102858.25;5002090;28;20354;-32
2023/05/25 04:58:56;;;;;;;5.82;3.22;;;;;;;20.81;47.50;102868.06;5005498;28;20050;-33
2023/05/25 05:01:25;;;;;;;4.25;2.70;;;;;;;20.83;47.32;102874.19;5005501;28;20054;-32
2023/05/25 05:03:51;;;;;;;5.50;3.05;;;;;;;20.86;47.60;102871.22;5004491;28;20042;-33
2023/05/25 05:06:18;;;;;;;4.68;2.95;;;;;;;20.87;47.57;102878.38;5004854;28;20053;-33
2023/05/25 05:08:45;;;;;;;3.63;2.70;;;;;;;20.90;47.95;102894.25;4999847;28;20085;-33
2023/05/25 05:11:11;;;;;;;4.68;3.08;;;;;;;20.91;47.52;102887.91;5005742;28;20503;-32
2023/05/25 05:13:38;;;;;;;6.03;2.90;;;;;;;20.93;48.02;102885.94;5005179;28;20037;-33
2023/05/25 05:16:05;;;;;;;5.35;3.40;;;;;;;20.96;47.66;102883.00;5009122;28;20060;-33
2023/05/25 05:18:32;;;;;;;4.43;2.70;;;;;;;20.99;47.65;102884.59;5002540;28;20113;-32
2023/05/25 05:20:58;;;;;;;5.15;2.88;;;;;;;21.02;47.86;102884.34;5001158;28;20132;-32
2023/05/25 05:23:25;;;;;;;6.05;2.60;;;;;;;21.03;47.23;102878.00;5004772;28;20049;-33
2023/05/25 05:25:52;;;;;;;7.15;3.45;;;;;;;21.05;47.70;102874.16;5004060;28;20060;-33
2023/05/25 05:28:18;;;;;;;3.55;2.42;;;;;;;21.08;47.47;102883.84;5002691;28;20092;-32
2023/05/25 05:30:46;;;;;;;6.40;3.30;;;;;;;21.11;47.16;102881.78;5002816;28;20097;-32
2023/05/25 05:33:13;;;;;;;5.55;3.10;;;;;;;21.13;47.41;102884.34;4999160;28;20168;-33
2023/05/25 05:35:40;;;;;;;4.63;2.65;;;;;;;21.16;47.08;102886.78;4999626;28;20149;-32
2023/05/25 05:38:06;;;;;;;5.15;3.42;;;;;;;21.17;47.29;102892.03;5002207;28;20050;-32
2023/05/25 05:40:33;;;;;;;4.97;3.22;;;;;;;21.23;47.66;102895.22;5003307;28;20466;-32
2023/05/25 05:43:00;;;;;;;3.65;2.53;;;;;;;21.24;47.18;102900.50;5001503;28;20096;-32
2023/05/25 05:45:26;;;;;;;7.95;3.30;;;;;;;21.27;47.21;102907.50;5001813;28;20160;-33
2023/05/25 05:47:53;;;;;;;4.97;2.95;;;;;;;21.30;47.01;102901.84;4997428;28;20089;-33
2023/05/25 05:50:20;;;;;;;4.50;2.90;;;;;;;21.32;46.97;102903.47;4997696;28;20509;-33
2023/05/25 05:52:47;;;;;;;5.28;3.13;;;;;;;21.33;46.92;102904.31;5000491;28;20382;-32
2023/05/25 05:55:13;;;;;;;5.10;3.28;;;;;;;21.35;47.01;102913.16;5002655;28;20115;-33
2023/05/25 05:57:40;;;;;;;6.07;3.50;;;;;;;21.36;46.93;102912.16;5001264;28;20073;-32
2023/05/25 06:00:07;;;;;;;4.95;3.05;;;;;;;21.37;46.97;102909.34;4999820;28;20128;-33
2023/05/25 06:02:34;;;;;;;4.45;2.47;;;;;;;21.38;47.25;102915.59;4998559;28;20120;-33
2023/05/25 06:05:01;;;;;;;5.82;3.03;;;;;;;21.37;47.01;102924.66;5001085;28;20046;-33
2023/05/25 06:07:29;;;;;;;7.18;3.28;;;;;;;21.38;46.51;102926.38;4996863;28;20133;-32
2023/05/25 06:09:56;;;;;;;4.68;2.80;;;;;;;21.38;46.75;102934.47;4997242;28;20054;-33
2023/05/25 06:12:23;;;;;;;4.55;3.25;;;;;;;21.38;46.80;102938.03;4997356;28;20073;-33
2023/05/25 06:14:50;;;;;;;6.47;3.33;;;;;;;21.38;46.88;102938.03;4997633;28;20058;-32
2023/05/25 06:17:17;;;;;;;5.70;2.85;;;;;;;21.37;46.72;102936.31;4998203;28;21005;-33
2023/05/25 06:19:44;;;;;;;5.38;3.25;;;;;;;21.38;46.90;102939.88;5001761;28;20061;-33
2023/05/25 06:22:11;;;;;;;4.38;3.00;;;;;;;21.38;46.56;102932.63;4997450;28;20730;-32
2023/05/25 06:24:38;;;;;;;6.00;3.25;;;;;;;21.38;47.08;102934.47;5003061;28;20096;-32
2023/05/25 06:27:04;;;;;;;5.10;3.17;;;;;;;21.38;46.91;102934.47;5001461;28;20054;-32
2023/05/25 06:29:31;;;;;;;4.43;2.85;;;;;;;21.38;47.19;102932.63;5007042;28;20053;-33
2023/05/25 06:31:57;;;;;;;3.97;2.42;;;;;;;21.38;47.08;102929.06;5005663;28;20377;-33
2023/05/25 06:34:24;;;;;;;4.40;2.80;;;;;;;21.38;46.83;102934.47;4999669;28;20316;-32
2023/05/25 06:36:51;;;;;;;4.68;2.80;;;;;;;21.39;46.86;102941.59;5002654;28;20108;-32
2023/05/25 06:39:19;;;;;;;7.10;3.22;;;;;;;21.39;46.79;102938.91;5006611;28;20135;-33
2023/05/25 06:41:45;;;;;;;7.28;3.15;;;;;;;21.39;46.82;102942.44;5008697;28;20054;-32
2023/05/25 06:44:12;;;;;;;4.50;2.80;;;;;;;21.41;46.93;102942.31;5006383;28;20049;-33
2023/05/25 06:46:38;;;;;;;3.50;2.22;;;;;;;21.40;46.65;102946.84;5001584;28;20073;-33
2023/05/25 06:49:05;;;;;;;4.60;2.85;;;;;;;21.41;46.52;102950.41;5001494;28;20116;-34
2023/05/25 06:51:32;;;;;;;4.88;2.80;;;;;;;21.40;46.77;102949.56;5001520;28;20100;-34
2023/05/25 06:53:59;;;;;;;4.47;2.65;;;;;;;21.40;46.86;102946.00;5001673;28;20042;-33
2023/05/25 06:56:26;;;;;;;5.15;3.33;;;;;;;21.40;46.79;102951.41;5005752;28;20050;-33
2023/05/25 06:58:53;;;;;;;3.88;2.55;;;;;;;21.39;46.79;102952.38;5004768;28;20058;-33
2023/05/25 07:01:20;;;;;;;5.20;3.00;;;;;;;21.40;46.73;102948.72;5001567;28;20072;-33
2023/05/25 07:03:46;;;;;;;5.40;3.05;;;;;;;21.40;46.58;102951.41;5000284;28;20043;-33
2023/05/25 07:06:14;;;;;;;5.03;2.72;;;;;;;21.39;46.61;102964.03;5002453;28;20092;-33
2023/05/25 07:08:40;;;;;;;4.85;2.80;;;;;;;21.39;46.66;102965.88;5002526;28;20057;-32
2023/05/25 07:11:09;;;;;;;6.03;3.42;;;;;;;21.38;46.76;102969.53;5001050;28;20054;-33
2023/05/25 07:13:36;;;;;;;3.90;2.53;;;;;;;21.39;46.78;102971.28;5004681;28;20226;-33
2023/05/25 07:16:02;;;;;;;4.68;2.90;;;;;;;21.39;46.79;102973.97;5001085;28;20104;-33
2023/05/25 07:18:29;;;;;;;4.43;2.55;;;;;;;21.38;46.55;102967.69;5000957;28;20430;-33
2023/05/25 07:20:56;;;;;;;6.05;2.97;;;;;;;21.39;46.63;102974.84;5002081;28;20069;-32
2023/05/25 07:23:22;;;;;;;4.63;2.60;;;;;;;21.40;46.78;102978.38;5004484;28;20141;-33
2023/05/25 07:25:49;;;;;;;5.22;2.80;;;;;;;21.40;46.62;102981.06;5002870;28;20462;-33
2023/05/25 07:28:15;;;;;;;4.35;2.72;;;;;;;21.40;46.76;102981.06;5003941;28;20054;-33
2023/05/25 07:30:42;;;;;;;4.85;2.67;;;;;;;21.42;46.80;102979.94;5002196;28;20050;-32
2023/05/25 07:33:09;;;;;;;4.55;2.70;;;;;;;21.43;46.55;102989.78;5001998;28;20193;-33
2023/05/25 07:35:35;;;;;;;5.60;2.75;;;;;;;21.45;46.86;102984.25;5005780;28;20077;-33
2023/05/25 07:38:05;;;;;;;4.43;2.65;;;;;;;21.46;46.69;102985.97;5002113;28;20054;-33
2023/05/25 07:40:32;;;;;;;3.92;2.53;;;;;;;21.46;46.54;102988.66;5000809;28;20130;-33
2023/05/25 07:42:59;;;;;;;4.25;2.33;;;;;;;21.47;46.58;102987.69;4999784;28;20082;-33
2023/05/25 07:45:25;;;;;;;4.93;2.80;;;;;;;21.48;46.17;102985.84;5006026;28;20047;-33
2023/05/25 07:47:52;;;;;;;5.85;2.60;;;;;;;21.48;46.40;102981.31;5003050;28;20689;-33
2023/05/25 07:50:19;;;;;;;3.95;2.65;;;;;;;21.49;46.56;102984.88;5002518;28;20050;-33
2023/05/25 07:52:45;;;;;;;5.20;2.47;;;;;;;21.49;46.43;102980.31;5002252;28;20378;-33
2023/05/25 07:55:12;;;;;;;5.40;2.83;;;;;;;21.50;46.53;102984.72;5000823;28;20054;-35
2023/05/25 07:57:39;;;;;;;4.05;2.33;;;;;;;21.52;46.46;102981.94;5005030;28;20050;-33
2023/05/25 08:00:09;;;;;;;3.88;2.20;;;;;;;21.53;46.45;102984.50;5003733;28;20128;-33
2023/05/25 08:02:36;;;;;;;3.88;2.30;;;;;;;21.55;46.28;102990.63;5004316;28;20050;-32
2023/05/25 08:05:04;;;;;;;4.03;2.55;;;;;;;21.57;46.56;102995.91;5005879;28;20072;-33
2023/05/25 08:07:32;;;;;;;5.50;2.58;;;;;;;21.58;46.35;102995.75;5003907;28;20054;-33
2023/05/25 08:09:59;;;;;;;4.68;2.30;;;;;;;21.60;46.09;102998.34;5005151;28;20045;-33
2023/05/25 08:12:26;;;;;;;4.18;2.50;;;;;;;21.61;46.02;103000.06;5006422;28;20493;-33
2023/05/25 08:15:12;;;;;;;4.70;2.42;;;;;;;21.63;45.94;103008.91;5004672;28;20050;-33
2023/05/25 08:17:40;;;;;;;4.03;2.40;;;;;;;21.63;45.96;103009.75;5000170;28;20054;-33
2023/05/25 08:20:07;;;;;;;3.58;2.50;;;;;;;21.64;45.81;103016.00;5006251;28;20050;-33
2023/05/25 08:22:35;;;;;;;3.45;2.22;;;;;;;21.63;45.71;103007.06;5004837;28;20058;-33
2023/05/25 08:25:03;;;;;;;4.18;2.58;;;;;;;21.64;45.79;103021.41;5005752;28;20058;-33
2023/05/25 08:27:29;;;;;;;3.70;2.05;;;;;;;21.64;45.82;103026.81;5004247;28;20061;-33
2023/05/25 08:30:00;;;;;;;3.75;2.60;;;;;;;21.64;45.91;103033.06;5004371;28;20108;-32
2023/05/25 08:32:27;;;;;;;3.47;2.10;;;;;;;21.63;45.95;103025.94;4999882;28;20056;-33
2023/05/25 08:34:53;;;;;;;4.10;2.22;;;;;;;21.64;46.29;103033.06;5000526;28;20092;-33
2023/05/25 08:37:22;;;;;;;3.25;2.17;;;;;;;21.65;45.96;103033.91;5003010;28;20046;-33
2023/05/25 08:39:49;;;;;;;4.35;2.58;;;;;;;21.64;46.06;103030.34;5001751;28;20134;-33
2023/05/25 08:42:15;;;;;;;4.07;2.30;;;;;;;21.64;46.25;103033.06;5005542;28;20046;-33
2023/05/25 08:44:42;;;;;;;4.65;2.28;;;;;;;21.65;45.94;103040.16;5002867;28;20054;-33
2023/05/25 08:47:11;;;;;;;4.32;2.53;;;;;;;21.65;46.36;103029.38;4997386;28;20496;-33
2023/05/25 08:49:38;;;;;;;4.35;2.25;;;;;;;21.66;46.08;103036.47;5000901;28;20096;-32
2023/05/25 08:52:09;;;;;;;6.82;2.60;;;;;;;21.67;45.94;103035.50;4999054;28;20062;-33
2023/05/25 08:54:36;;;;;;;3.83;2.25;;;;;;;21.68;46.29;103029.13;5003388;28;20038;-33
2023/05/25 08:57:16;;;;;;;4.40;1.88;;;;;;;21.69;46.05;103030.84;4998791;28;20054;-33
2023/05/25 08:59:57;;;;;;;3.78;2.22;;;;;;;21.70;46.03;103020.88;4999270;28;20434;-32
2023/05/25 09:02:38;;;;;;;4.70;2.25;;;;;;;21.71;45.92;103024.44;5002022;28;20402;-33
2023/05/25 09:05:05;;;;;;;3.90;2.15;;;;;;;21.72;46.09;103035.13;4998314;28;20050;-33
2023/05/25 09:07:33;;;;;;;3.95;2.30;;;;;;;21.73;46.05;103030.59;5002302;28;20100;-32
2023/05/25 09:10:00;;;;;;;4.80;2.30;;;;;;;21.73;45.95;103019.78;5003384;28;20069;-33
2023/05/25 09:12:30;;;;;;;4.28;2.50;;;;;;;21.74;46.10;103021.50;5004210;28;20338;-33
2023/05/25 09:14:58;;;;;;;4.93;2.38;;;;;;;21.76;45.81;103019.56;4996049;28;20149;-33
2023/05/25 09:17:25;;;;;;;3.72;2.20;;;;;;;21.77;45.86;103024.81;5001968;28;20085;-33
2023/05/25 09:19:52;;;;;;;3.22;1.85;;;;;;;21.79;45.64;103021.97;5005445;28;20050;-32
2023/05/25 09:22:18;;;;;;;3.92;2.08;;;;;;;21.80;45.89;103029.13;5001648;28;20052;-33
2023/05/25 09:24:46;;;;;;;4.00;2.13;;;;;;;21.81;45.80;103036.22;5001897;28;20597;-34
2023/05/25 09:27:22;;;;;;;4.35;2.15;;;;;;;21.81;45.72;103037.06;5007955;28;20046;-33
2023/05/25 09:29:50;;;;;;;4.78;2.28;;;;;;;21.83;45.65;103031.53;5006849;28;20136;-34
2023/05/25 09:32:17;;;;;;;3.28;2.00;;;;;;;21.82;45.67;103035.22;5003023;28;20120;-33
2023/05/25 09:34:45;;;;;;;3.67;2.22;;;;;;;21.83;45.64;103036.94;5004873;28;20050;-33
2023/05/25 09:37:17;;;;;;;3.42;1.80;;;;;;;21.83;45.63;103036.94;5001956;28;20046;-33
2023/05/25 09:39:46;;;;;;;3.40;1.95;;;;;;;21.82;45.88;103030.69;5007488;28;20447;-33
2023/05/25 09:42:13;;;;;;;4.40;2.40;;;;;;;21.82;45.82;103033.38;4999523;28;20046;-33
2023/05/25 09:44:41;;;;;;;2.85;2.00;;;;;;;21.82;46.02;103033.38;5003649;28;20050;-32
2023/05/25 09:47:08;;;;;;;2.38;1.65;;;;;;;21.81;45.92;103028.97;4997760;28;20045;-32
2023/05/25 09:49:35;;;;;;;2.83;1.80;;;;;;;21.82;45.89;103035.22;4999227;28;20045;-32
2023/05/25 09:52:02;;;;;;;3.95;1.90;;;;;;;21.83;46.00;103036.94;4996182;28;20072;-33
2023/05/25 09:54:28;;;;;;;2.85;2.20;;;;;;;21.82;45.98;103032.53;4996358;28;20088;-32
2023/05/25 09:56:55;;;;;;;2.53;1.85;;;;;;;21.83;46.10;103034.25;5002204;28;20066;-33
2023/05/25 09:59:22;;;;;;;3.70;2.10;;;;;;;21.84;45.98;103038.69;4998582;28;20089;-33
2023/05/25 10:01:52;;;;;;;4.40;2.40;;;;;;;21.84;46.03;103039.53;4999697;28;20050;-33
2023/05/25 10:04:19;;;;;;;6.93;2.30;;;;;;;21.85;45.69;103033.13;4998020;28;20057;-33
2023/05/25 10:06:48;;;;;;;8.43;2.63;;;;;;;21.88;45.72;103041.00;5001774;28;20041;-33
2023/05/25 10:09:18;;;;;;;6.50;2.53;;;;;;;21.90;45.70;103043.56;5001859;28;20049;-33
2023/05/25 10:11:45;;;;;;;6.10;2.85;;;;;;;21.91;45.74;103039.91;5001215;28;20343;-33
2023/05/25 10:14:16;;;;;;;9.55;2.42;;;;;;;21.92;45.83;103041.59;5000786;28;20603;-33
2023/05/25 10:16:48;;;;;;;4.28;2.35;;;;;;;21.93;45.44;103038.78;5001129;28;20041;-33
2023/05/25 10:19:23;;;;;;;9.85;3.08;;;;;;;21.95;45.77;103038.66;5000682;28;20054;-32
2023/05/25 10:22:18;;;;;;;5.20;2.65;;;;;;;21.96;45.68;103034.97;4998002;28;20054;-33
2023/05/25 10:24:56;;;;;;;6.60;2.80;;;;;;;21.99;45.74;103039.25;4999335;28;20053;-34
2023/05/25 10:27:38;;;;;;;8.10;3.35;;;;;;;22.00;45.85;103035.59;5002191;28;20057;-33
2023/05/25 10:30:08;;;;;;;7.03;2.85;;;;;;;22.01;45.90;103048.09;4998690;28;20046;-33
2023/05/25 10:32:39;;;;;;;6.47;3.03;;;;;;;22.02;45.56;103041.69;5001120;28;20081;-33
2023/05/25 10:35:07;;;;;;;5.85;2.75;;;;;;;22.02;45.73;103045.25;5001205;28;20121;-33
2023/05/25 10:37:35;;;;;;;6.00;2.67;;;;;;;22.02;45.63;103047.94;5000361;28;20071;-33
2023/05/25 10:40:07;;;;;;;6.78;2.85;;;;;;;22.03;45.58;103048.81;5004594;28;20046;-33
2023/05/25 10:42:36;;;;;;;8.23;2.65;;;;;;;22.03;45.66;103049.69;5001644;28;20073;-33
2023/05/25 10:45:07;;;;;;;12.95;3.28;;;;;;;22.04;45.43;103055.94;5003441;28;20046;-33
2023/05/25 10:47:36;;;;;;;7.32;3.20;;;;;;;22.04;45.69;103046.00;5002391;28;20097;-32
2023/05/25 10:50:04;;;;;;;6.78;2.78;;;;;;;22.07;45.54;103045.75;4997763;28;20046;-33
2023/05/25 10:52:31;;;;;;;4.63;2.53;;;;;;;22.08;45.65;103046.59;5004184;28;20089;-33
2023/05/25 10:55:03;;;;;;;6.53;3.20;;;;;;;22.09;45.80;103042.91;5005293;28;20049;-33
2023/05/25 10:57:29;;;;;;;5.50;2.67;;;;;;;22.09;45.65;103048.31;5008881;28;20045;-34
2023/05/25 11:00:09;;;;;;;6.28;2.72;;;;;;;22.09;45.77;103049.16;4999788;28;20100;-32
2023/05/25 11:02:54;;;;;;;7.22;2.58;;;;;;;22.09;45.72;103046.47;4998828;28;20050;-33
2023/05/25 11:05:33;;;;;;;6.68;2.65;;;;;;;22.10;45.67;103045.47;4999357;28;20074;-32
2023/05/25 11:08:08;;;;;;;6.05;2.58;;;;;;;22.11;45.76;103047.22;5005055;28;20124;-32
2023/05/25 11:10:51;;;;;;;5.65;2.30;;;;;;;22.11;45.67;103047.22;5007210;28;20108;-32
2023/05/25 11:13:30;;;;;;;;;;;;;;;22.11;45.56;103047.22;5003509;28;20423;-34
2023/05/25 11:16:13;;;;;;;7.82;3.00;;;;;;;22.14;45.50;103041.56;5002279;28;19929;-33
2023/05/25 11:18:40;;;;;;;5.82;2.50;;;;;;;22.14;45.66;103046.13;5003958;28;20050;-33
2023/05/25 11:21:23;;;;;;;5.80;2.65;;;;;;;22.13;45.44;103049.81;5004322;28;20043;-34
2023/05/25 11:23:55;;;;;;;4.22;2.22;;;;;;;22.14;45.44;103051.53;5008113;28;20104;-33
2023/05/25 11:26:29;;;;;;;5.80;2.75;;;;;;;22.12;45.51;103042.66;5006947;28;20050;-32
2023/05/25 11:29:00;;;;;;;5.82;2.47;;;;;;;22.14;45.35;103046.13;5002182;28;20054;-34
2023/05/25 11:31:31;;;;;;;6.28;2.70;;;;;;;22.15;45.44;103037.91;5003626;28;20050;-33